createdAt,value
2018-11-12T00:03:12.722Z,15.53
2018-11-12T00:08:06.259Z,15.80
2018-11-12T00:12:59.706Z,17.80
2018-11-12T00:17:53.197Z,18.20
2018-11-12T00:22:47.299Z,17.77
2018-11-12T00:27:40.870Z,16.35
2018-11-12T00:32:34.360Z,15.15
2018-11-12T00:37:27.900Z,15.78
2018-11-12T00:42:21.329Z,16.97
2018-11-12T00:47:14.750Z,15.80
2018-11-12T00:52:08.225Z,16.70
2018-11-12T00:57:01.878Z,16.37
2018-11-12T01:01:55.308Z,16.55
2018-11-12T01:06:49.001Z,18.45
2018-11-12T01:11:42.434Z,16.95
2018-11-12T01:16:36.022Z,15.68
2018-11-12T01:21:29.429Z,17.65
2018-11-12T01:26:22.931Z,16.57
2018-11-12T01:31:16.404Z,17.65
2018-11-12T01:36:09.854Z,18.17
2018-11-12T01:41:03.515Z,16.50
2018-11-12T01:45:56.894Z,17.42
2018-11-12T01:50:50.350Z,16.02
2018-11-12T01:55:43.726Z,16.48
2018-11-12T02:00:37.149Z,16.30
2018-11-12T02:05:30.743Z,17.17
2018-11-12T02:10:24.122Z,15.65
2018-11-12T02:15:19.012Z,17.85
2018-11-12T02:20:13.517Z,16.90
2018-11-12T02:25:08.273Z,18.40
2018-11-12T02:30:02.049Z,17.12
2018-11-12T02:34:55.632Z,15.65
2018-11-12T02:39:49.020Z,17.82
2018-11-12T02:44:42.441Z,16.30
2018-11-12T02:49:35.954Z,16.55
2018-11-12T02:54:29.222Z,16.90
2018-11-12T02:59:22.721Z,16.65
2018-11-12T03:04:16.186Z,16.95
2018-11-12T03:09:12.448Z,17.50
2018-11-12T03:14:06.014Z,17.52
2018-11-12T03:18:59.959Z,17.80
2018-11-12T03:23:53.473Z,19.75
2018-11-12T03:28:46.980Z,17.73
2018-11-12T03:33:40.506Z,19.42
2018-11-12T03:38:33.986Z,20.05
2018-11-12T03:43:27.411Z,15.98
2018-11-12T03:48:20.874Z,18.00
2018-11-12T03:53:14.316Z,18.35
2018-11-12T03:58:07.775Z,19.90
2018-11-12T04:03:01.279Z,20.72
2018-11-12T04:07:55.072Z,18.87
2018-11-12T04:12:48.666Z,19.98
2018-11-12T04:17:42.311Z,21.55
2018-11-12T04:22:35.732Z,20.75
2018-11-12T04:27:29.168Z,20.43
2018-11-12T04:32:22.806Z,21.48
2018-11-12T04:37:16.363Z,20.52
2018-11-12T04:42:09.843Z,23.65
2018-11-12T04:47:03.823Z,26.15
2018-11-12T04:51:57.430Z,21.42
2018-11-12T04:56:51.003Z,21.23
2018-11-12T05:01:44.460Z,19.40
2018-11-12T05:06:38.243Z,22.95
2018-11-12T05:11:31.778Z,23.15
2018-11-12T05:16:25.194Z,23.65
2018-11-12T05:21:18.770Z,21.82
2018-11-12T05:26:12.247Z,22.82
2018-11-12T05:31:05.714Z,22.70
2018-11-12T05:35:59.279Z,21.20
2018-11-12T05:40:52.885Z,22.17
2018-11-12T05:45:46.575Z,23.67
2018-11-12T05:50:39.989Z,22.40
2018-11-12T05:55:34.118Z,23.18
2018-11-12T06:00:29.341Z,21.55
2018-11-12T06:05:22.871Z,22.02
2018-11-12T06:10:18.783Z,28.12
2018-11-12T06:15:12.749Z,21.90
2018-11-12T06:20:16.891Z,20.70
2018-11-12T06:25:11.972Z,21.82
2018-11-12T06:30:07.210Z,27.87
2018-11-12T06:35:00.825Z,22.30
2018-11-12T06:39:54.370Z,20.02
2018-11-12T06:44:47.884Z,17.45
2018-11-12T06:49:41.382Z,17.35
2018-11-12T06:54:34.957Z,19.10
2018-11-12T06:59:28.453Z,18.73
2018-11-12T07:04:21.919Z,16.67
2018-11-12T07:09:15.458Z,18.23
2018-11-12T07:14:10.031Z,19.15
2018-11-12T07:19:20.183Z,19.73
2018-11-12T07:24:14.076Z,19.93
2018-11-12T07:29:07.511Z,16.85
2018-11-12T07:34:01.056Z,20.88
2018-11-12T07:38:54.642Z,19.05
2018-11-12T07:43:48.070Z,18.32
2018-11-12T07:48:41.562Z,18.32
2018-11-12T07:53:35.137Z,20.40
2018-11-12T07:58:28.763Z,23.52
2018-11-12T08:03:22.249Z,24.50
2018-11-12T08:08:15.776Z,20.23
2018-11-12T08:13:09.235Z,25.20
2018-11-12T08:18:02.991Z,21.90
2018-11-12T08:22:56.508Z,29.02
2018-11-12T08:27:50.224Z,25.77
2018-11-12T08:32:44.574Z,28.10
2018-11-12T08:37:38.095Z,30.97
2018-11-12T08:42:32.638Z,27.13
2018-11-12T08:47:26.002Z,30.48
2018-11-12T08:52:19.532Z,31.20
2018-11-12T08:57:13.049Z,27.87
2018-11-12T09:02:06.855Z,25.23
2018-11-12T09:07:00.446Z,27.35
2018-11-12T09:11:53.941Z,26.93
2018-11-12T09:16:47.404Z,25.92
2018-11-12T09:21:41.085Z,25.15
2018-11-12T09:26:34.834Z,24.80
2018-11-12T09:31:28.537Z,26.27
2018-11-12T09:41:15.733Z,24.93
2018-11-12T09:46:09.253Z,19.57
2018-11-12T09:51:02.803Z,22.40
2018-11-12T09:55:56.180Z,22.73
2018-11-12T10:00:49.959Z,20.60
2018-11-12T10:05:44.510Z,26.62
2018-11-12T10:10:44.940Z,20.72
2018-11-12T10:15:39.258Z,24.27
2018-11-12T10:20:30.484Z,23.70
2018-11-12T10:25:24.142Z,21.27
2018-11-12T10:30:17.791Z,22.10
2018-11-12T10:35:11.300Z,21.85
2018-11-12T10:40:06.782Z,22.32
2018-11-12T10:45:00.214Z,19.98
2018-11-12T10:49:54.515Z,22.07
2018-11-12T10:54:48.099Z,18.95
2018-11-12T10:59:41.624Z,16.75
2018-11-12T11:04:35.139Z,18.10
2018-11-12T11:09:28.765Z,21.45
2018-11-12T11:14:22.367Z,16.67
2018-11-12T11:19:16.376Z,16.90
2018-11-12T11:24:09.795Z,17.65
2018-11-12T11:29:03.459Z,18.80
2018-11-12T11:33:57.059Z,17.87
2018-11-12T11:38:50.600Z,22.48
2018-11-12T11:43:44.128Z,18.15
2018-11-12T11:48:37.691Z,16.77
2018-11-12T11:53:31.229Z,18.00
2018-11-12T11:58:24.860Z,16.50
2018-11-12T12:03:18.309Z,15.70
2018-11-12T12:08:12.954Z,15.15
2018-11-12T12:13:06.703Z,15.32
2018-11-12T12:18:00.308Z,16.12
2018-11-12T12:22:54.218Z,20.05
2018-11-12T12:27:48.267Z,15.85
2018-11-12T12:32:42.592Z,19.50
2018-11-12T12:37:36.235Z,17.95
2018-11-12T12:42:29.652Z,19.30
2018-11-12T12:47:23.129Z,18.05
2018-11-12T12:52:16.682Z,15.32
2018-11-12T12:57:10.067Z,17.20
2018-11-12T13:02:03.558Z,16.42
2018-11-12T13:06:57.241Z,16.35
2018-11-12T13:11:50.992Z,17.80
2018-11-12T13:16:44.919Z,14.93
2018-11-12T13:21:38.268Z,15.23
2018-11-12T13:26:31.849Z,16.50
2018-11-12T13:31:25.478Z,16.48
2018-11-12T13:36:19.269Z,17.77
2018-11-12T13:41:12.784Z,15.50
2018-11-12T13:46:06.162Z,14.28
2018-11-12T13:50:59.740Z,14.18
2018-11-12T13:55:53.170Z,14.07
2018-11-12T14:00:46.589Z,18.02
2018-11-12T14:05:40.106Z,26.33
2018-11-12T14:10:33.674Z,19.02
2018-11-12T14:15:27.310Z,24.20
2018-11-12T14:20:21.343Z,23.18
2018-11-12T14:25:15.894Z,32.25
2018-11-12T14:30:11.427Z,48.55
2018-11-12T14:35:06.218Z,29.42
2018-11-12T14:40:00.046Z,29.75
2018-11-12T14:44:53.731Z,21.65
2018-11-12T14:49:47.432Z,25.70
2018-11-12T14:54:41.129Z,34.23
2018-11-12T14:59:34.686Z,33.48
2018-11-12T15:04:28.248Z,36.75
2018-11-12T15:09:21.862Z,50.38
2018-11-12T15:14:15.473Z,72.22
2018-11-12T15:19:09.449Z,28.95
2018-11-12T15:24:02.918Z,30.43
2018-11-12T15:28:56.398Z,22.58
2018-11-12T15:33:49.747Z,24.82
2018-11-12T15:38:43.321Z,21.65
2018-11-12T15:43:36.769Z,21.90
2018-11-12T15:48:30.382Z,23.62
2018-11-12T15:53:23.775Z,45.90
2018-11-12T15:58:17.579Z,72.47
2018-11-12T16:03:11.040Z,50.00
2018-11-12T16:08:04.966Z,61.80
2018-11-12T16:12:58.517Z,55.48
2018-11-12T16:17:52.108Z,41.18
2018-11-12T16:22:46.415Z,45.95
2018-11-12T16:27:40.211Z,40.88
2018-11-12T16:32:33.857Z,25.77
2018-11-12T16:37:27.401Z,29.12
2018-11-12T16:42:20.863Z,25.05
2018-11-12T16:47:14.583Z,22.10
2018-11-12T16:52:08.120Z,49.77
2018-11-12T16:57:01.558Z,19.42
2018-11-12T17:01:55.351Z,19.00
2018-11-12T17:06:48.781Z,20.45
2018-11-12T17:11:42.600Z,17.50
2018-11-12T17:16:36.290Z,19.90
2018-11-12T17:21:29.917Z,26.95
2018-11-12T17:26:23.512Z,48.95
2018-11-12T17:31:17.037Z,27.80
2018-11-12T17:36:11.018Z,23.47
2018-11-12T17:41:06.987Z,40.52
2018-11-12T17:46:00.706Z,34.15
2018-11-12T17:50:54.592Z,21.02
2018-11-12T17:55:48.354Z,30.90
2018-11-12T18:00:41.784Z,24.80
2018-11-12T18:05:35.585Z,29.75
2018-11-12T18:10:29.086Z,24.72
2018-11-12T18:15:23.638Z,25.50
2018-11-12T18:20:19.728Z,25.68
2018-11-12T18:25:13.831Z,25.00
2018-11-12T18:30:13.087Z,19.50
2018-11-12T18:35:07.120Z,19.85
2018-11-12T18:40:01.072Z,22.52
2018-11-12T18:44:54.967Z,39.98
2018-11-12T18:49:48.499Z,31.85
2018-11-12T18:54:41.973Z,30.90
2018-11-12T18:59:35.491Z,33.05
2018-11-12T19:04:29.070Z,25.97
2018-11-12T19:09:22.548Z,21.60
2018-11-12T19:14:16.178Z,23.73
2018-11-12T19:19:09.744Z,32.95
2018-11-12T19:24:03.455Z,23.77
2018-11-12T19:28:57.103Z,21.82
2018-11-12T19:33:50.762Z,16.90
2018-11-12T19:38:44.517Z,19.73
2018-11-12T19:43:38.064Z,22.60
2018-11-12T19:48:31.929Z,21.65
2018-11-12T19:53:26.238Z,17.07
2018-11-12T19:58:19.980Z,23.90
2018-11-12T20:03:13.557Z,19.05
2018-11-12T20:08:07.056Z,23.65
2018-11-12T20:13:00.787Z,31.90
2018-11-12T20:17:54.784Z,19.60
2018-11-12T20:22:48.615Z,16.73
2018-11-12T20:27:43.064Z,20.88
2018-11-12T20:32:37.546Z,19.87
2018-11-12T20:37:31.250Z,22.58
2018-11-12T20:42:25.057Z,22.93
2018-11-12T20:47:18.513Z,19.87
2018-11-12T20:52:12.088Z,16.35
2018-11-12T20:57:05.725Z,23.20
2018-11-12T21:01:59.162Z,20.45
2018-11-12T21:06:52.686Z,21.95
2018-11-12T21:11:46.248Z,18.12
2018-11-12T21:16:39.778Z,20.82
2018-11-12T21:21:33.185Z,17.48
2018-11-12T21:26:26.583Z,20.35
2018-11-12T21:31:19.940Z,18.12
2018-11-12T21:36:13.350Z,18.73
2018-11-12T21:41:06.880Z,20.12
2018-11-12T21:46:00.424Z,24.18
2018-11-12T21:50:53.767Z,16.52
2018-11-12T21:55:47.186Z,24.23
2018-11-12T22:00:40.602Z,17.87
2018-11-12T22:05:34.314Z,21.17
2018-11-12T22:10:27.722Z,21.55
2018-11-12T22:15:21.347Z,15.43
2018-11-12T22:20:15.875Z,15.68
2018-11-12T22:25:11.265Z,15.38
2018-11-12T22:30:04.948Z,16.12
2018-11-12T22:34:58.326Z,13.72
2018-11-12T22:39:51.771Z,18.65
2018-11-12T22:44:45.239Z,15.70
2018-11-12T22:49:38.834Z,21.02
2018-11-12T22:54:32.428Z,23.60
2018-11-12T22:59:25.830Z,25.82
2018-11-12T23:04:19.275Z,15.38
2018-11-12T23:09:13.724Z,17.82
2018-11-12T23:14:07.155Z,17.82
2018-11-12T23:19:00.601Z,15.25
2018-11-12T23:23:54.047Z,15.75
2018-11-12T23:28:47.533Z,15.32
2018-11-12T23:33:40.969Z,15.20
2018-11-12T23:38:34.375Z,17.90
2018-11-12T23:43:27.760Z,15.88
2018-11-12T23:48:22.115Z,15.60
2018-11-12T23:53:15.509Z,16.42
2018-11-12T23:58:09.041Z,15.43
